sensor_id;sensor_type;location;lat;lon;timestamp;P1;durP1;ratioP1;P2;durP2;ratioP2
10645;SDS011;5371;49.782;9.932;2023-02-28T00:01:06;7.17;;;4.57;;
10645;SDS011;5371;49.782;9.932;2023-02-28T00:03:33;7.50;;;4.90;;
10645;SDS011;5371;49.782;9.932;2023-02-28T00:06:01;6.10;;;4.43;;
10645;SDS011;5371;49.782;9.932;2023-02-28T00:08:28;7.40;;;4.60;;
10645;SDS011;5371;49.782;9.932;2023-02-28T00:11:00;6.80;;;4.50;;
10645;SDS011;5371;49.782;9.932;2023-02-28T00:13:27;6.63;;;5.00;;
10645;SDS011;5371;49.782;9.932;2023-02-28T00:15:58;6.13;;;4.73;;
10645;SDS011;5371;49.782;9.932;2023-02-28T00:18:26;7.70;;;4.40;;
10645;SDS011;5371;49.782;9.932;2023-02-28T00:20:53;6.43;;;4.50;;
10645;SDS011;5371;49.782;9.932;2023-02-28T00:23:20;6.67;;;4.87;;
10645;SDS011;5371;49.782;9.932;2023-02-28T00:25:47;7.87;;;4.50;;
10645;SDS011;5371;49.782;9.932;2023-02-28T00:28:16;7.13;;;4.63;;
10645;SDS011;5371;49.782;9.932;2023-02-28T00:30:43;6.87;;;4.97;;
10645;SDS011;5371;49.782;9.932;2023-02-28T00:33:10;7.57;;;4.80;;
10645;SDS011;5371;49.782;9.932;2023-02-28T00:35:37;6.63;;;4.37;;
10645;SDS011;5371;49.782;9.932;2023-02-28T00:38:04;8.43;;;5.17;;
10645;SDS011;5371;49.782;9.932;2023-02-28T00:40:34;6.23;;;4.80;;
10645;SDS011;5371;49.782;9.932;2023-02-28T00:43:01;6.40;;;4.40;;
10645;SDS011;5371;49.782;9.932;2023-02-28T00:45:29;5.60;;;4.40;;
10645;SDS011;5371;49.782;9.932;2023-02-28T00:47:56;7.90;;;4.43;;
10645;SDS011;5371;49.782;9.932;2023-02-28T00:50:24;5.70;;;4.50;;
10645;SDS011;5371;49.782;9.932;2023-02-28T00:52:51;6.17;;;4.50;;
10645;SDS011;5371;49.782;9.932;2023-02-28T00:55:19;6.33;;;4.30;;
10645;SDS011;5371;49.782;9.932;2023-02-28T00:57:47;6.63;;;4.70;;
10645;SDS011;5371;49.782;9.932;2023-02-28T01:00:14;5.60;;;4.40;;
10645;SDS011;5371;49.782;9.932;2023-02-28T01:02:43;6.90;;;4.70;;
10645;SDS011;5371;49.782;9.932;2023-02-28T01:05:10;6.67;;;4.70;;
10645;SDS011;5371;49.782;9.932;2023-02-28T01:07:37;6.37;;;4.37;;
10645;SDS011;5371;49.782;9.932;2023-02-28T01:10:04;7.43;;;4.67;;
10645;SDS011;5371;49.782;9.932;2023-02-28T01:12:32;6.53;;;4.63;;
10645;SDS011;5371;49.782;9.932;2023-02-28T01:14:59;6.83;;;4.63;;
10645;SDS011;5371;49.782;9.932;2023-02-28T01:17:26;6.63;;;5.10;;
10645;SDS011;5371;49.782;9.932;2023-02-28T01:19:55;5.40;;;4.13;;
10645;SDS011;5371;49.782;9.932;2023-02-28T01:22:24;7.60;;;4.67;;
10645;SDS011;5371;49.782;9.932;2023-02-28T01:24:51;7.73;;;5.10;;
10645;SDS011;5371;49.782;9.932;2023-02-28T01:27:18;6.03;;;4.27;;
10645;SDS011;5371;49.782;9.932;2023-02-28T01:29:45;7.30;;;4.73;;
10645;SDS011;5371;49.782;9.932;2023-02-28T01:32:12;7.17;;;4.53;;
10645;SDS011;5371;49.782;9.932;2023-02-28T01:34:39;6.33;;;4.33;;
10645;SDS011;5371;49.782;9.932;2023-02-28T01:37:07;8.73;;;4.90;;
10645;SDS011;5371;49.782;9.932;2023-02-28T01:39:34;7.10;;;4.63;;
10645;SDS011;5371;49.782;9.932;2023-02-28T01:42:02;8.30;;;4.47;;
10645;SDS011;5371;49.782;9.932;2023-02-28T01:47:24;7.87;;;4.90;;
10645;SDS011;5371;49.782;9.932;2023-02-28T01:49:56;5.67;;;4.50;;
10645;SDS011;5371;49.782;9.932;2023-02-28T01:52:25;6.87;;;4.73;;
10645;SDS011;5371;49.782;9.932;2023-02-28T01:54:54;8.13;;;4.93;;
10645;SDS011;5371;49.782;9.932;2023-02-28T01:57:24;8.07;;;4.90;;
10645;SDS011;5371;49.782;9.932;2023-02-28T01:59:57;6.53;;;4.70;;
10645;SDS011;5371;49.782;9.932;2023-02-28T02:02:27;8.20;;;4.97;;
10645;SDS011;5371;49.782;9.932;2023-02-28T02:04:56;7.97;;;4.80;;
10645;SDS011;5371;49.782;9.932;2023-02-28T02:07:30;6.87;;;4.90;;
10645;SDS011;5371;49.782;9.932;2023-02-28T02:10:00;10.50;;;5.33;;
10645;SDS011;5371;49.782;9.932;2023-02-28T02:12:32;7.50;;;4.87;;
10645;SDS011;5371;49.782;9.932;2023-02-28T02:15:09;8.53;;;5.77;;
10645;SDS011;5371;49.782;9.932;2023-02-28T02:17:43;8.57;;;5.23;;
10645;SDS011;5371;49.782;9.932;2023-02-28T02:20:27;7.70;;;4.80;;
10645;SDS011;5371;49.782;9.932;2023-02-28T02:29:38;7.20;;;5.27;;
10645;SDS011;5371;49.782;9.932;2023-02-28T02:35:31;7.60;;;5.43;;
10645;SDS011;5371;49.782;9.932;2023-02-28T02:38:06;7.83;;;5.23;;
10645;SDS011;5371;49.782;9.932;2023-02-28T02:40:38;7.17;;;5.00;;
10645;SDS011;5371;49.782;9.932;2023-02-28T02:43:13;9.67;;;5.37;;
10645;SDS011;5371;49.782;9.932;2023-02-28T02:45:47;7.70;;;4.83;;
10645;SDS011;5371;49.782;9.932;2023-02-28T02:48:21;9.60;;;5.53;;
10645;SDS011;5371;49.782;9.932;2023-02-28T02:50:57;7.70;;;5.10;;
10645;SDS011;5371;49.782;9.932;2023-02-28T02:53:28;7.20;;;5.13;;
10645;SDS011;5371;49.782;9.932;2023-02-28T02:56:00;8.50;;;5.03;;
10645;SDS011;5371;49.782;9.932;2023-02-28T02:58:31;7.63;;;5.20;;
10645;SDS011;5371;49.782;9.932;2023-02-28T03:01:07;6.47;;;5.30;;
10645;SDS011;5371;49.782;9.932;2023-02-28T03:03:38;7.07;;;5.10;;
10645;SDS011;5371;49.782;9.932;2023-02-28T03:06:07;7.03;;;5.43;;
10645;SDS011;5371;49.782;9.932;2023-02-28T03:08:36;8.33;;;5.30;;
10645;SDS011;5371;49.782;9.932;2023-02-28T03:11:05;8.63;;;5.53;;
10645;SDS011;5371;49.782;9.932;2023-02-28T03:13:39;7.93;;;5.53;;
10645;SDS011;5371;49.782;9.932;2023-02-28T03:16:25;7.13;;;5.00;;
10645;SDS011;5371;49.782;9.932;2023-02-28T03:19:03;8.17;;;5.43;;
10645;SDS011;5371;49.782;9.932;2023-02-28T03:21:43;7.80;;;5.17;;
10645;SDS011;5371;49.782;9.932;2023-02-28T03:24:18;8.57;;;5.73;;
10645;SDS011;5371;49.782;9.932;2023-02-28T03:26:50;8.53;;;5.13;;
10645;SDS011;5371;49.782;9.932;2023-02-28T03:29:22;8.57;;;5.30;;
10645;SDS011;5371;49.782;9.932;2023-02-28T03:31:56;7.30;;;5.27;;
10645;SDS011;5371;49.782;9.932;2023-02-28T03:34:29;7.30;;;5.10;;
10645;SDS011;5371;49.782;9.932;2023-02-28T03:37:02;8.37;;;5.53;;
10645;SDS011;5371;49.782;9.932;2023-02-28T03:39:34;7.17;;;5.27;;
10645;SDS011;5371;49.782;9.932;2023-02-28T03:42:05;6.57;;;5.23;;
10645;SDS011;5371;49.782;9.932;2023-02-28T03:44:36;7.50;;;5.53;;
10645;SDS011;5371;49.782;9.932;2023-02-28T03:47:08;8.63;;;5.70;;
10645;SDS011;5371;49.782;9.932;2023-02-28T03:49:39;7.40;;;5.43;;
10645;SDS011;5371;49.782;9.932;2023-02-28T03:52:14;7.37;;;5.30;;
10645;SDS011;5371;49.782;9.932;2023-02-28T03:54:45;8.50;;;5.43;;
10645;SDS011;5371;49.782;9.932;2023-02-28T03:57:18;8.47;;;5.60;;
10645;SDS011;5371;49.782;9.932;2023-02-28T03:59:54;8.47;;;5.40;;
10645;SDS011;5371;49.782;9.932;2023-02-28T04:02:25;8.63;;;5.70;;
10645;SDS011;5371;49.782;9.932;2023-02-28T04:04:52;9.30;;;5.60;;
10645;SDS011;5371;49.782;9.932;2023-02-28T04:07:21;7.73;;;5.27;;
10645;SDS011;5371;49.782;9.932;2023-02-28T04:09:48;8.20;;;5.90;;
10645;SDS011;5371;49.782;9.932;2023-02-28T04:12:15;8.27;;;5.57;;
10645;SDS011;5371;49.782;9.932;2023-02-28T04:14:42;8.80;;;5.53;;
10645;SDS011;5371;49.782;9.932;2023-02-28T04:17:09;8.23;;;5.43;;
10645;SDS011;5371;49.782;9.932;2023-02-28T04:19:36;7.53;;;4.93;;
10645;SDS011;5371;49.782;9.932;2023-02-28T04:22:03;8.37;;;5.57;;
10645;SDS011;5371;49.782;9.932;2023-02-28T04:24:31;8.00;;;5.37;;
10645;SDS011;5371;49.782;9.932;2023-02-28T04:26:59;8.90;;;6.10;;
10645;SDS011;5371;49.782;9.932;2023-02-28T04:29:27;9.83;;;5.90;;
10645;SDS011;5371;49.782;9.932;2023-02-28T04:31:56;6.93;;;5.53;;
10645;SDS011;5371;49.782;9.932;2023-02-28T04:34:24;9.13;;;5.23;;
10645;SDS011;5371;49.782;9.932;2023-02-28T04:36:53;7.40;;;5.50;;
10645;SDS011;5371;49.782;9.932;2023-02-28T04:39:21;7.73;;;5.43;;
10645;SDS011;5371;49.782;9.932;2023-02-28T04:41:49;9.23;;;5.83;;
10645;SDS011;5371;49.782;9.932;2023-02-28T04:44:16;7.87;;;5.87;;
10645;SDS011;5371;49.782;9.932;2023-02-28T04:46:44;7.23;;;5.40;;
10645;SDS011;5371;49.782;9.932;2023-02-28T04:49:11;8.43;;;5.97;;
10645;SDS011;5371;49.782;9.932;2023-02-28T04:51:39;8.60;;;5.57;;
10645;SDS011;5371;49.782;9.932;2023-02-28T04:54:06;8.13;;;5.77;;
10645;SDS011;5371;49.782;9.932;2023-02-28T04:56:33;8.43;;;5.70;;
10645;SDS011;5371;49.782;9.932;2023-02-28T04:59:02;7.53;;;5.80;;
10645;SDS011;5371;49.782;9.932;2023-02-28T05:01:30;9.47;;;6.00;;
10645;SDS011;5371;49.782;9.932;2023-02-28T05:04:00;7.60;;;5.77;;
10645;SDS011;5371;49.782;9.932;2023-02-28T05:06:30;8.40;;;5.90;;
10645;SDS011;5371;49.782;9.932;2023-02-28T05:08:59;8.27;;;5.67;;
10645;SDS011;5371;49.782;9.932;2023-02-28T05:11:28;10.67;;;5.73;;
10645;SDS011;5371;49.782;9.932;2023-02-28T05:14:00;7.83;;;5.47;;
10645;SDS011;5371;49.782;9.932;2023-02-28T05:16:29;9.23;;;6.67;;
10645;SDS011;5371;49.782;9.932;2023-02-28T05:18:56;8.30;;;5.90;;
10645;SDS011;5371;49.782;9.932;2023-02-28T05:21:25;10.07;;;5.73;;
10645;SDS011;5371;49.782;9.932;2023-02-28T05:23:55;15.30;;;8.43;;
10645;SDS011;5371;49.782;9.932;2023-02-28T05:26:24;9.33;;;5.90;;
10645;SDS011;5371;49.782;9.932;2023-02-28T05:28:51;8.23;;;5.73;;
10645;SDS011;5371;49.782;9.932;2023-02-28T05:31:20;8.87;;;5.83;;
10645;SDS011;5371;49.782;9.932;2023-02-28T05:33:47;8.37;;;5.40;;
10645;SDS011;5371;49.782;9.932;2023-02-28T05:36:14;10.07;;;5.83;;
10645;SDS011;5371;49.782;9.932;2023-02-28T05:38:41;7.83;;;5.33;;
10645;SDS011;5371;49.782;9.932;2023-02-28T05:41:08;9.70;;;5.73;;
10645;SDS011;5371;49.782;9.932;2023-02-28T05:43:36;9.53;;;5.80;;
10645;SDS011;5371;49.782;9.932;2023-02-28T05:46:04;10.80;;;5.43;;
10645;SDS011;5371;49.782;9.932;2023-02-28T05:48:33;8.47;;;5.23;;
10645;SDS011;5371;49.782;9.932;2023-02-28T05:51:01;7.07;;;5.40;;
10645;SDS011;5371;49.782;9.932;2023-02-28T05:53:29;8.43;;;5.53;;
10645;SDS011;5371;49.782;9.932;2023-02-28T05:55:56;8.40;;;5.17;;
10645;SDS011;5371;49.782;9.932;2023-02-28T05:58:23;11.33;;;5.70;;
10645;SDS011;5371;49.782;9.932;2023-02-28T06:00:54;8.60;;;6.07;;
10645;SDS011;5371;49.782;9.932;2023-02-28T06:03:21;10.27;;;6.90;;
10645;SDS011;5371;49.782;9.932;2023-02-28T06:05:49;7.97;;;5.17;;
10645;SDS011;5371;49.782;9.932;2023-02-28T06:08:16;8.93;;;4.80;;
10645;SDS011;5371;49.782;9.932;2023-02-28T06:10:43;6.93;;;5.17;;
10645;SDS011;5371;49.782;9.932;2023-02-28T06:13:11;6.47;;;4.80;;
10645;SDS011;5371;49.782;9.932;2023-02-28T06:15:38;9.07;;;4.73;;
10645;SDS011;5371;49.782;9.932;2023-02-28T06:18:05;8.13;;;5.27;;
10645;SDS011;5371;49.782;9.932;2023-02-28T06:20:32;6.87;;;4.60;;
10645;SDS011;5371;49.782;9.932;2023-02-28T06:23:01;6.10;;;4.83;;
10645;SDS011;5371;49.782;9.932;2023-02-28T06:25:28;7.37;;;4.33;;
10645;SDS011;5371;49.782;9.932;2023-02-28T06:27:55;7.13;;;4.87;;
10645;SDS011;5371;49.782;9.932;2023-02-28T06:30:22;6.33;;;4.53;;
10645;SDS011;5371;49.782;9.932;2023-02-28T06:32:53;7.60;;;4.40;;
10645;SDS011;5371;49.782;9.932;2023-02-28T06:35:20;6.63;;;4.73;;
10645;SDS011;5371;49.782;9.932;2023-02-28T06:37:47;8.10;;;5.00;;
10645;SDS011;5371;49.782;9.932;2023-02-28T06:40:16;7.00;;;4.77;;
10645;SDS011;5371;49.782;9.932;2023-02-28T06:42:43;8.93;;;4.57;;
10645;SDS011;5371;49.782;9.932;2023-02-28T06:45:10;7.47;;;5.00;;
10645;SDS011;5371;49.782;9.932;2023-02-28T06:47:38;6.50;;;4.70;;
10645;SDS011;5371;49.782;9.932;2023-02-28T06:50:07;7.40;;;4.40;;
10645;SDS011;5371;49.782;9.932;2023-02-28T06:52:35;7.80;;;4.90;;
10645;SDS011;5371;49.782;9.932;2023-02-28T06:55:03;7.70;;;4.60;;
10645;SDS011;5371;49.782;9.932;2023-02-28T06:57:32;5.63;;;4.07;;
10645;SDS011;5371;49.782;9.932;2023-02-28T07:00:00;8.07;;;4.47;;
10645;SDS011;5371;49.782;9.932;2023-02-28T07:02:32;7.93;;;4.90;;
10645;SDS011;5371;49.782;9.932;2023-02-28T07:04:59;7.77;;;5.00;;
10645;SDS011;5371;49.782;9.932;2023-02-28T07:07:26;11.67;;;5.17;;
10645;SDS011;5371;49.782;9.932;2023-02-28T07:09:53;7.07;;;4.37;;
10645;SDS011;5371;49.782;9.932;2023-02-28T07:12:20;7.73;;;4.50;;
10645;SDS011;5371;49.782;9.932;2023-02-28T07:14:49;7.03;;;5.00;;
10645;SDS011;5371;49.782;9.932;2023-02-28T07:17:16;7.47;;;4.73;;
10645;SDS011;5371;49.782;9.932;2023-02-28T07:19:43;7.77;;;4.47;;
10645;SDS011;5371;49.782;9.932;2023-02-28T07:22:10;7.00;;;4.20;;
10645;SDS011;5371;49.782;9.932;2023-02-28T07:24:37;10.23;;;5.03;;
10645;SDS011;5371;49.782;9.932;2023-02-28T07:27:04;7.07;;;4.60;;
10645;SDS011;5371;49.782;9.932;2023-02-28T07:29:31;11.17;;;4.53;;
10645;SDS011;5371;49.782;9.932;2023-02-28T07:32:00;7.07;;;4.83;;
10645;SDS011;5371;49.782;9.932;2023-02-28T07:34:27;8.80;;;4.73;;
10645;SDS011;5371;49.782;9.932;2023-02-28T07:36:54;6.17;;;4.77;;
10645;SDS011;5371;49.782;9.932;2023-02-28T07:39:21;8.40;;;5.20;;
10645;SDS011;5371;49.782;9.932;2023-02-28T07:41:48;9.30;;;4.47;;
10645;SDS011;5371;49.782;9.932;2023-02-28T07:44:15;7.83;;;4.80;;
10645;SDS011;5371;49.782;9.932;2023-02-28T07:46:42;7.60;;;4.73;;
10645;SDS011;5371;49.782;9.932;2023-02-28T07:49:11;8.43;;;5.57;;
10645;SDS011;5371;49.782;9.932;2023-02-28T07:51:38;9.40;;;4.83;;
10645;SDS011;5371;49.782;9.932;2023-02-28T07:54:04;9.23;;;5.40;;
10645;SDS011;5371;49.782;9.932;2023-02-28T07:56:32;6.40;;;5.07;;
10645;SDS011;5371;49.782;9.932;2023-02-28T07:58:59;7.53;;;5.57;;
10645;SDS011;5371;49.782;9.932;2023-02-28T08:01:26;9.03;;;5.83;;
10645;SDS011;5371;49.782;9.932;2023-02-28T08:03:53;8.03;;;5.73;;
10645;SDS011;5371;49.782;9.932;2023-02-28T08:06:24;7.20;;;5.53;;
10645;SDS011;5371;49.782;9.932;2023-02-28T08:08:52;8.43;;;5.90;;
10645;SDS011;5371;49.782;9.932;2023-02-28T08:11:21;7.87;;;5.50;;
10645;SDS011;5371;49.782;9.932;2023-02-28T08:13:48;10.87;;;5.67;;
10645;SDS011;5371;49.782;9.932;2023-02-28T08:16:16;7.73;;;5.13;;
10645;SDS011;5371;49.782;9.932;2023-02-28T08:18:47;8.17;;;5.40;;
10645;SDS011;5371;49.782;9.932;2023-02-28T08:21:15;7.70;;;5.17;;
10645;SDS011;5371;49.782;9.932;2023-02-28T08:23:43;6.77;;;5.20;;
10645;SDS011;5371;49.782;9.932;2023-02-28T08:26:10;7.13;;;5.20;;
10645;SDS011;5371;49.782;9.932;2023-02-28T08:28:37;8.20;;;5.97;;
10645;SDS011;5371;49.782;9.932;2023-02-28T08:31:08;9.93;;;6.23;;
10645;SDS011;5371;49.782;9.932;2023-02-28T08:33:36;10.47;;;6.07;;
10645;SDS011;5371;49.782;9.932;2023-02-28T08:36:04;8.37;;;5.67;;
10645;SDS011;5371;49.782;9.932;2023-02-28T08:38:32;8.97;;;6.10;;
10645;SDS011;5371;49.782;9.932;2023-02-28T08:41:01;8.87;;;5.60;;
10645;SDS011;5371;49.782;9.932;2023-02-28T08:43:31;9.80;;;7.00;;
10645;SDS011;5371;49.782;9.932;2023-02-28T08:45:58;7.80;;;6.00;;
10645;SDS011;5371;49.782;9.932;2023-02-28T08:48:25;11.27;;;6.80;;
10645;SDS011;5371;49.782;9.932;2023-02-28T08:50:56;9.00;;;6.57;;
10645;SDS011;5371;49.782;9.932;2023-02-28T08:53:24;11.30;;;6.70;;
10645;SDS011;5371;49.782;9.932;2023-02-28T08:55:57;8.30;;;6.00;;
10645;SDS011;5371;49.782;9.932;2023-02-28T08:58:27;9.60;;;7.07;;
10645;SDS011;5371;49.782;9.932;2023-02-28T09:00:54;9.57;;;6.63;;
10645;SDS011;5371;49.782;9.932;2023-02-28T09:03:22;8.90;;;6.57;;
10645;SDS011;5371;49.782;9.932;2023-02-28T09:05:53;8.27;;;6.43;;
10645;SDS011;5371;49.782;9.932;2023-02-28T09:08:21;9.80;;;7.53;;
10645;SDS011;5371;49.782;9.932;2023-02-28T09:10:48;9.77;;;6.80;;
10645;SDS011;5371;49.782;9.932;2023-02-28T09:13:16;11.90;;;6.90;;
10645;SDS011;5371;49.782;9.932;2023-02-28T09:15:43;9.43;;;6.80;;
10645;SDS011;5371;49.782;9.932;2023-02-28T09:18:11;10.23;;;7.00;;
10645;SDS011;5371;49.782;9.932;2023-02-28T09:20:38;9.17;;;6.83;;
10645;SDS011;5371;49.782;9.932;2023-02-28T09:23:05;9.60;;;6.33;;
10645;SDS011;5371;49.782;9.932;2023-02-28T09:25:33;10.40;;;6.87;;
10645;SDS011;5371;49.782;9.932;2023-02-28T09:28:00;9.07;;;6.43;;
10645;SDS011;5371;49.782;9.932;2023-02-28T09:30:29;9.03;;;6.43;;
10645;SDS011;5371;49.782;9.932;2023-02-28T09:32:56;10.30;;;7.20;;
10645;SDS011;5371;49.782;9.932;2023-02-28T09:35:23;8.63;;;6.53;;
10645;SDS011;5371;49.782;9.932;2023-02-28T09:37:52;8.47;;;6.90;;
10645;SDS011;5371;49.782;9.932;2023-02-28T09:40:19;8.53;;;6.33;;
10645;SDS011;5371;49.782;9.932;2023-02-28T09:42:49;9.40;;;6.30;;
10645;SDS011;5371;49.782;9.932;2023-02-28T09:45:21;10.93;;;6.77;;
10645;SDS011;5371;49.782;9.932;2023-02-28T09:47:53;8.97;;;6.50;;
10645;SDS011;5371;49.782;9.932;2023-02-28T09:50:29;9.57;;;6.37;;
10645;SDS011;5371;49.782;9.932;2023-02-28T09:53:01;8.70;;;6.10;;
10645;SDS011;5371;49.782;9.932;2023-02-28T09:55:33;12.10;;;6.57;;
10645;SDS011;5371;49.782;9.932;2023-02-28T09:58:05;9.20;;;6.60;;
10645;SDS011;5371;49.782;9.932;2023-02-28T10:00:42;10.13;;;6.90;;
10645;SDS011;5371;49.782;9.932;2023-02-28T10:05:56;8.47;;;6.50;;
10645;SDS011;5371;49.782;9.932;2023-02-28T10:08:33;8.53;;;6.40;;
10645;SDS011;5371;49.782;9.932;2023-02-28T10:11:09;8.30;;;6.13;;
10645;SDS011;5371;49.782;9.932;2023-02-28T10:13:40;10.57;;;7.47;;
10645;SDS011;5371;49.782;9.932;2023-02-28T10:16:20;9.57;;;6.30;;
10645;SDS011;5371;49.782;9.932;2023-02-28T10:18:54;11.50;;;6.63;;
10645;SDS011;5371;49.782;9.932;2023-02-28T10:21:27;13.20;;;6.97;;
10645;SDS011;5371;49.782;9.932;2023-02-28T10:24:01;9.30;;;6.60;;
10645;SDS011;5371;49.782;9.932;2023-02-28T10:26:31;9.43;;;6.77;;
10645;SDS011;5371;49.782;9.932;2023-02-28T10:28:59;9.97;;;7.17;;
10645;SDS011;5371;49.782;9.932;2023-02-28T10:31:28;9.03;;;6.80;;
10645;SDS011;5371;49.782;9.932;2023-02-28T10:33:56;9.30;;;7.03;;
10645;SDS011;5371;49.782;9.932;2023-02-28T10:36:23;7.33;;;6.37;;
10645;SDS011;5371;49.782;9.932;2023-02-28T10:38:50;9.20;;;6.60;;
10645;SDS011;5371;49.782;9.932;2023-02-28T10:41:26;10.27;;;7.33;;
10645;SDS011;5371;49.782;9.932;2023-02-28T10:46:41;9.97;;;6.80;;
10645;SDS011;5371;49.782;9.932;2023-02-28T10:49:17;10.53;;;6.57;;
10645;SDS011;5371;49.782;9.932;2023-02-28T10:51:49;7.83;;;6.37;;
10645;SDS011;5371;49.782;9.932;2023-02-28T10:54:19;9.13;;;6.40;;
10645;SDS011;5371;49.782;9.932;2023-02-28T10:57:07;8.03;;;6.27;;
10645;SDS011;5371;49.782;9.932;2023-02-28T10:59:41;10.30;;;6.90;;
10645;SDS011;5371;49.782;9.932;2023-02-28T11:02:29;8.80;;;6.90;;
10645;SDS011;5371;49.782;9.932;2023-02-28T11:05:00;9.97;;;6.70;;
10645;SDS011;5371;49.782;9.932;2023-02-28T11:07:28;9.93;;;6.73;;
10645;SDS011;5371;49.782;9.932;2023-02-28T11:09:56;10.60;;;7.03;;
10645;SDS011;5371;49.782;9.932;2023-02-28T11:12:26;9.47;;;6.70;;
10645;SDS011;5371;49.782;9.932;2023-02-28T11:14:55;10.50;;;6.50;;
10645;SDS011;5371;49.782;9.932;2023-02-28T11:17:26;9.07;;;6.53;;
10645;SDS011;5371;49.782;9.932;2023-02-28T11:19:55;11.53;;;6.93;;
10645;SDS011;5371;49.782;9.932;2023-02-28T11:22:26;8.50;;;6.30;;
10645;SDS011;5371;49.782;9.932;2023-02-28T11:24:56;9.80;;;6.93;;
10645;SDS011;5371;49.782;9.932;2023-02-28T11:30:23;12.70;;;7.33;;
10645;SDS011;5371;49.782;9.932;2023-02-28T11:32:52;9.73;;;6.87;;
10645;SDS011;5371;49.782;9.932;2023-02-28T11:35:21;8.63;;;6.63;;
10645;SDS011;5371;49.782;9.932;2023-02-28T11:37:53;9.70;;;6.70;;
10645;SDS011;5371;49.782;9.932;2023-02-28T11:40:23;11.43;;;6.80;;
10645;SDS011;5371;49.782;9.932;2023-02-28T11:43:01;10.50;;;6.97;;
10645;SDS011;5371;49.782;9.932;2023-02-28T11:45:42;9.10;;;6.97;;
10645;SDS011;5371;49.782;9.932;2023-02-28T11:48:19;11.07;;;7.47;;
10645;SDS011;5371;49.782;9.932;2023-02-28T11:50:56;10.73;;;6.87;;
10645;SDS011;5371;49.782;9.932;2023-02-28T11:53:42;9.60;;;6.63;;
10645;SDS011;5371;49.782;9.932;2023-02-28T11:56:19;9.20;;;6.60;;
10645;SDS011;5371;49.782;9.932;2023-02-28T11:58:55;9.70;;;6.43;;
10645;SDS011;5371;49.782;9.932;2023-02-28T12:01:36;9.40;;;6.90;;
10645;SDS011;5371;49.782;9.932;2023-02-28T12:04:17;9.37;;;6.90;;
10645;SDS011;5371;49.782;9.932;2023-02-28T12:06:55;9.40;;;6.57;;
10645;SDS011;5371;49.782;9.932;2023-02-28T12:09:43;10.73;;;6.80;;
10645;SDS011;5371;49.782;9.932;2023-02-28T12:12:23;10.00;;;6.77;;
10645;SDS011;5371;49.782;9.932;2023-02-28T12:15:03;9.23;;;6.50;;
10645;SDS011;5371;49.782;9.932;2023-02-28T12:17:46;9.07;;;6.47;;
10645;SDS011;5371;49.782;9.932;2023-02-28T12:20:25;8.07;;;6.70;;
10645;SDS011;5371;49.782;9.932;2023-02-28T12:23:03;8.27;;;6.60;;
10645;SDS011;5371;49.782;9.932;2023-02-28T12:25:50;11.43;;;7.80;;
10645;SDS011;5371;49.782;9.932;2023-02-28T12:28:30;9.87;;;6.93;;
10645;SDS011;5371;49.782;9.932;2023-02-28T12:31:01;10.43;;;7.10;;
10645;SDS011;5371;49.782;9.932;2023-02-28T12:33:35;10.13;;;7.00;;
10645;SDS011;5371;49.782;9.932;2023-02-28T12:36:09;9.03;;;6.97;;
10645;SDS011;5371;49.782;9.932;2023-02-28T12:38:41;9.50;;;7.17;;
10645;SDS011;5371;49.782;9.932;2023-02-28T12:41:13;11.63;;;7.40;;
10645;SDS011;5371;49.782;9.932;2023-02-28T12:43:44;9.20;;;7.30;;
10645;SDS011;5371;49.782;9.932;2023-02-28T12:46:14;10.07;;;7.60;;
10645;SDS011;5371;49.782;9.932;2023-02-28T12:48:46;11.10;;;7.23;;
10645;SDS011;5371;49.782;9.932;2023-02-28T12:51:17;13.67;;;7.63;;
10645;SDS011;5371;49.782;9.932;2023-02-28T12:53:49;12.63;;;7.67;;
10645;SDS011;5371;49.782;9.932;2023-02-28T12:56:28;9.57;;;7.13;;
10645;SDS011;5371;49.782;9.932;2023-02-28T12:59:06;9.90;;;7.33;;
10645;SDS011;5371;49.782;9.932;2023-02-28T13:01:42;12.47;;;7.10;;
10645;SDS011;5371;49.782;9.932;2023-02-28T13:04:43;8.20;;;6.57;;
10645;SDS011;5371;49.782;9.932;2023-02-28T13:10:36;10.33;;;7.10;;
10645;SDS011;5371;49.782;9.932;2023-02-28T13:13:11;11.47;;;7.47;;
10645;SDS011;5371;49.782;9.932;2023-02-28T13:15:49;10.53;;;7.40;;
10645;SDS011;5371;49.782;9.932;2023-02-28T13:18:28;11.67;;;7.47;;
10645;SDS011;5371;49.782;9.932;2023-02-28T13:20:58;11.97;;;7.30;;
10645;SDS011;5371;49.782;9.932;2023-02-28T13:23:37;10.03;;;7.30;;
10645;SDS011;5371;49.782;9.932;2023-02-28T13:26:07;12.30;;;7.43;;
10645;SDS011;5371;49.782;9.932;2023-02-28T13:34:49;11.70;;;7.60;;
10645;SDS011;5371;49.782;9.932;2023-02-28T13:37:42;11.30;;;7.47;;
10645;SDS011;5371;49.782;9.932;2023-02-28T13:40:27;12.53;;;8.50;;
10645;SDS011;5371;49.782;9.932;2023-02-28T13:43:02;9.77;;;7.53;;
10645;SDS011;5371;49.782;9.932;2023-02-28T13:45:30;10.73;;;7.77;;
10645;SDS011;5371;49.782;9.932;2023-02-28T13:48:04;10.63;;;7.47;;
10645;SDS011;5371;49.782;9.932;2023-02-28T13:50:41;11.60;;;7.73;;
10645;SDS011;5371;49.782;9.932;2023-02-28T13:53:26;13.83;;;7.83;;
10645;SDS011;5371;49.782;9.932;2023-02-28T13:56:20;9.87;;;7.20;;
10645;SDS011;5371;49.782;9.932;2023-02-28T13:58:55;11.93;;;8.00;;
10645;SDS011;5371;49.782;9.932;2023-02-28T14:01:40;12.30;;;7.60;;
10645;SDS011;5371;49.782;9.932;2023-02-28T14:04:28;11.17;;;7.50;;
10645;SDS011;5371;49.782;9.932;2023-02-28T14:07:21;12.10;;;8.40;;
10645;SDS011;5371;49.782;9.932;2023-02-28T14:09:55;10.73;;;7.63;;
10645;SDS011;5371;49.782;9.932;2023-02-28T14:15:28;11.23;;;7.53;;
10645;SDS011;5371;49.782;9.932;2023-02-28T14:18:20;10.37;;;7.97;;
10645;SDS011;5371;49.782;9.932;2023-02-28T14:20:52;10.23;;;7.40;;
10645;SDS011;5371;49.782;9.932;2023-02-28T14:23:32;10.73;;;7.50;;
10645;SDS011;5371;49.782;9.932;2023-02-28T14:26:18;12.23;;;8.00;;
10645;SDS011;5371;49.782;9.932;2023-02-28T14:28:58;10.53;;;7.67;;
10645;SDS011;5371;49.782;9.932;2023-02-28T14:31:38;10.17;;;7.03;;
10645;SDS011;5371;49.782;9.932;2023-02-28T14:34:20;10.77;;;7.27;;
10645;SDS011;5371;49.782;9.932;2023-02-28T14:36:58;11.27;;;7.17;;
10645;SDS011;5371;49.782;9.932;2023-02-28T14:39:28;10.17;;;7.50;;
10645;SDS011;5371;49.782;9.932;2023-02-28T14:41:58;16.20;;;8.07;;
10645;SDS011;5371;49.782;9.932;2023-02-28T14:44:28;10.17;;;7.33;;
10645;SDS011;5371;49.782;9.932;2023-02-28T14:46:56;10.33;;;7.90;;
10645;SDS011;5371;49.782;9.932;2023-02-28T14:49:31;11.70;;;7.60;;
10645;SDS011;5371;49.782;9.932;2023-02-28T14:52:03;10.77;;;7.93;;
10645;SDS011;5371;49.782;9.932;2023-02-28T14:54:35;10.60;;;7.23;;
10645;SDS011;5371;49.782;9.932;2023-02-28T14:57:02;9.40;;;7.23;;
10645;SDS011;5371;49.782;9.932;2023-02-28T14:59:30;12.23;;;7.70;;
10645;SDS011;5371;49.782;9.932;2023-02-28T15:02:18;12.27;;;8.03;;
10645;SDS011;5371;49.782;9.932;2023-02-28T15:04:56;10.67;;;7.37;;
10645;SDS011;5371;49.782;9.932;2023-02-28T15:07:25;11.53;;;7.67;;
10645;SDS011;5371;49.782;9.932;2023-02-28T15:10:08;10.27;;;7.50;;
10645;SDS011;5371;49.782;9.932;2023-02-28T15:12:45;10.90;;;7.77;;
10645;SDS011;5371;49.782;9.932;2023-02-28T15:15:18;10.87;;;7.57;;
10645;SDS011;5371;49.782;9.932;2023-02-28T15:17:46;13.07;;;7.87;;
10645;SDS011;5371;49.782;9.932;2023-02-28T15:20:18;10.40;;;7.23;;
10645;SDS011;5371;49.782;9.932;2023-02-28T15:22:46;10.13;;;7.10;;
10645;SDS011;5371;49.782;9.932;2023-02-28T15:25:17;9.93;;;7.20;;
10645;SDS011;5371;49.782;9.932;2023-02-28T15:27:47;11.03;;;7.07;;
10645;SDS011;5371;49.782;9.932;2023-02-28T15:30:17;10.73;;;7.50;;
10645;SDS011;5371;49.782;9.932;2023-02-28T15:32:46;9.53;;;7.20;;
10645;SDS011;5371;49.782;9.932;2023-02-28T15:35:31;9.40;;;6.90;;
10645;SDS011;5371;49.782;9.932;2023-02-28T15:38:00;8.13;;;6.23;;
10645;SDS011;5371;49.782;9.932;2023-02-28T15:40:29;12.07;;;7.33;;
10645;SDS011;5371;49.782;9.932;2023-02-28T15:42:59;12.17;;;7.50;;
10645;SDS011;5371;49.782;9.932;2023-02-28T15:45:37;9.23;;;6.77;;
10645;SDS011;5371;49.782;9.932;2023-02-28T15:48:17;9.97;;;6.97;;
10645;SDS011;5371;49.782;9.932;2023-02-28T15:50:48;12.33;;;7.30;;
10645;SDS011;5371;49.782;9.932;2023-02-28T15:53:18;10.07;;;7.07;;
10645;SDS011;5371;49.782;9.932;2023-02-28T15:55:52;11.87;;;7.43;;